sensor_id;sensor_type;location;lat;lon;timestamp;temperature;humidity
5011;DHT22;2524;54.364;10.072;2023-02-25T00:01:07;4.30;99.90
5011;DHT22;2524;54.364;10.072;2023-02-25T00:03:34;4.30;99.90
5011;DHT22;2524;54.364;10.072;2023-02-25T00:06:01;4.30;99.90
5011;DHT22;2524;54.364;10.072;2023-02-25T00:08:27;4.30;99.90
5011;DHT22;2524;54.364;10.072;2023-02-25T00:11:03;4.30;99.90
5011;DHT22;2524;54.364;10.072;2023-02-25T00:13:30;4.30;99.90
5011;DHT22;2524;54.364;10.072;2023-02-25T00:15:55;4.20;99.90
5011;DHT22;2524;54.364;10.072;2023-02-25T00:18:25;4.20;99.90
5011;DHT22;2524;54.364;10.072;2023-02-25T00:20:51;4.20;99.90
5011;DHT22;2524;54.364;10.072;2023-02-25T00:23:17;4.20;99.90
5011;DHT22;2524;54.364;10.072;2023-02-25T00:25:42;4.20;99.90
5011;DHT22;2524;54.364;10.072;2023-02-25T00:28:09;4.20;99.90
5011;DHT22;2524;54.364;10.072;2023-02-25T00:30:37;4.20;99.90
5011;DHT22;2524;54.364;10.072;2023-02-25T00:33:03;4.20;99.90
5011;DHT22;2524;54.364;10.072;2023-02-25T00:35:31;4.20;99.90
5011;DHT22;2524;54.364;10.072;2023-02-25T00:37:56;4.10;99.90
5011;DHT22;2524;54.364;10.072;2023-02-25T00:40:22;4.10;99.90
5011;DHT22;2524;54.364;10.072;2023-02-25T00:42:48;4.20;99.90
5011;DHT22;2524;54.364;10.072;2023-02-25T00:45:14;4.10;99.90
5011;DHT22;2524;54.364;10.072;2023-02-25T00:47:39;4.10;99.90
5011;DHT22;2524;54.364;10.072;2023-02-25T00:50:06;4.10;99.90
5011;DHT22;2524;54.364;10.072;2023-02-25T00:52:34;4.10;99.90
5011;DHT22;2524;54.364;10.072;2023-02-25T00:55:00;4.10;99.90
5011;DHT22;2524;54.364;10.072;2023-02-25T00:57:26;4.10;99.90
5011;DHT22;2524;54.364;10.072;2023-02-25T00:59:52;4.10;99.90
5011;DHT22;2524;54.364;10.072;2023-02-25T01:02:17;4.10;99.90
5011;DHT22;2524;54.364;10.072;2023-02-25T01:04:43;4.10;99.90
5011;DHT22;2524;54.364;10.072;2023-02-25T01:07:08;4.10;99.90
5011;DHT22;2524;54.364;10.072;2023-02-25T01:09:35;4.00;99.90
5011;DHT22;2524;54.364;10.072;2023-02-25T01:12:02;4.00;99.90
5011;DHT22;2524;54.364;10.072;2023-02-25T01:14:27;4.00;99.90
5011;DHT22;2524;54.364;10.072;2023-02-25T01:16:53;4.00;99.90
5011;DHT22;2524;54.364;10.072;2023-02-25T01:19:23;4.00;99.90
5011;DHT22;2524;54.364;10.072;2023-02-25T01:21:52;4.00;99.90
5011;DHT22;2524;54.364;10.072;2023-02-25T01:26:49;4.00;99.90
5011;DHT22;2524;54.364;10.072;2023-02-25T01:29:21;4.00;99.90
5011;DHT22;2524;54.364;10.072;2023-02-25T01:31:51;4.00;99.90
5011;DHT22;2524;54.364;10.072;2023-02-25T01:34:18;4.00;99.90
5011;DHT22;2524;54.364;10.072;2023-02-25T01:36:45;4.00;99.90
5011;DHT22;2524;54.364;10.072;2023-02-25T01:39:12;3.90;99.90
5011;DHT22;2524;54.364;10.072;2023-02-25T01:41:37;3.90;99.90
5011;DHT22;2524;54.364;10.072;2023-02-25T01:44:14;3.90;99.90
5011;DHT22;2524;54.364;10.072;2023-02-25T01:46:42;3.90;99.90
5011;DHT22;2524;54.364;10.072;2023-02-25T01:49:15;3.90;99.90
5011;DHT22;2524;54.364;10.072;2023-02-25T01:51:45;3.90;99.90
5011;DHT22;2524;54.364;10.072;2023-02-25T01:54:13;3.80;99.90
5011;DHT22;2524;54.364;10.072;2023-02-25T01:56:41;3.80;99.90
5011;DHT22;2524;54.364;10.072;2023-02-25T01:59:09;3.80;99.90
5011;DHT22;2524;54.364;10.072;2023-02-25T02:01:37;3.80;99.90
5011;DHT22;2524;54.364;10.072;2023-02-25T02:04:06;3.80;99.90
5011;DHT22;2524;54.364;10.072;2023-02-25T02:06:38;3.80;99.90
5011;DHT22;2524;54.364;10.072;2023-02-25T02:09:07;3.80;99.90
5011;DHT22;2524;54.364;10.072;2023-02-25T02:11:34;3.80;99.90
5011;DHT22;2524;54.364;10.072;2023-02-25T02:14:02;3.80;99.90
5011;DHT22;2524;54.364;10.072;2023-02-25T02:19:26;3.80;99.90
5011;DHT22;2524;54.364;10.072;2023-02-25T02:22:13;3.80;99.90
5011;DHT22;2524;54.364;10.072;2023-02-25T02:24:50;3.80;99.90
5011;DHT22;2524;54.364;10.072;2023-02-25T02:27:30;3.70;99.90
5011;DHT22;2524;54.364;10.072;2023-02-25T02:30:15;3.70;99.90
5011;DHT22;2524;54.364;10.072;2023-02-25T02:35:25;3.70;99.90
5011;DHT22;2524;54.364;10.072;2023-02-25T02:38:13;3.70;99.90
5011;DHT22;2524;54.364;10.072;2023-02-25T02:43:38;3.70;99.90
5011;DHT22;2524;54.364;10.072;2023-02-25T02:46:19;3.70;99.90
5011;DHT22;2524;54.364;10.072;2023-02-25T02:49:06;3.70;99.90
5011;DHT22;2524;54.364;10.072;2023-02-25T02:51:42;3.70;99.90
5011;DHT22;2524;54.364;10.072;2023-02-25T02:54:10;3.70;99.90
5011;DHT22;2524;54.364;10.072;2023-02-25T02:56:40;3.70;99.90
5011;DHT22;2524;54.364;10.072;2023-02-25T02:59:10;3.70;99.90
5011;DHT22;2524;54.364;10.072;2023-02-25T03:01:50;3.80;99.90
5011;DHT22;2524;54.364;10.072;2023-02-25T03:04:22;3.80;99.90
5011;DHT22;2524;54.364;10.072;2023-02-25T03:06:52;3.80;99.90
5011;DHT22;2524;54.364;10.072;2023-02-25T03:09:24;3.70;99.90
5011;DHT22;2524;54.364;10.072;2023-02-25T03:11:51;3.70;99.90
5011;DHT22;2524;54.364;10.072;2023-02-25T03:14:17;3.70;99.90
5011;DHT22;2524;54.364;10.072;2023-02-25T03:16:47;3.70;99.90
5011;DHT22;2524;54.364;10.072;2023-02-25T03:19:22;3.70;99.90
5011;DHT22;2524;54.364;10.072;2023-02-25T03:22:00;3.70;99.90
5011;DHT22;2524;54.364;10.072;2023-02-25T03:24:33;3.70;99.90
5011;DHT22;2524;54.364;10.072;2023-02-25T03:29:49;3.70;99.90
5011;DHT22;2524;54.364;10.072;2023-02-25T03:32:15;3.70;99.90
5011;DHT22;2524;54.364;10.072;2023-02-25T03:34:47;3.80;99.90
5011;DHT22;2524;54.364;10.072;2023-02-25T03:37:18;3.70;99.90
5011;DHT22;2524;54.364;10.072;2023-02-25T03:39:54;3.70;99.90
5011;DHT22;2524;54.364;10.072;2023-02-25T03:42:29;3.70;99.90
5011;DHT22;2524;54.364;10.072;2023-02-25T03:44:59;3.70;99.90
5011;DHT22;2524;54.364;10.072;2023-02-25T03:47:26;3.70;99.90
5011;DHT22;2524;54.364;10.072;2023-02-25T03:50:05;3.70;99.90
5011;DHT22;2524;54.364;10.072;2023-02-25T03:52:33;3.70;99.90
5011;DHT22;2524;54.364;10.072;2023-02-25T03:54:59;3.70;99.90
5011;DHT22;2524;54.364;10.072;2023-02-25T03:57:34;3.70;99.90
5011;DHT22;2524;54.364;10.072;2023-02-25T04:00:00;3.70;99.90
5011;DHT22;2524;54.364;10.072;2023-02-25T04:02:30;3.70;99.90
5011;DHT22;2524;54.364;10.072;2023-02-25T04:04:57;3.70;99.90
5011;DHT22;2524;54.364;10.072;2023-02-25T04:07:22;3.80;99.90
5011;DHT22;2524;54.364;10.072;2023-02-25T04:09:48;3.80;99.90
5011;DHT22;2524;54.364;10.072;2023-02-25T04:12:13;3.70;99.90
5011;DHT22;2524;54.364;10.072;2023-02-25T04:14:40;3.70;99.90
5011;DHT22;2524;54.364;10.072;2023-02-25T04:17:05;3.80;99.90
5011;DHT22;2524;54.364;10.072;2023-02-25T04:19:31;3.70;99.90
5011;DHT22;2524;54.364;10.072;2023-02-25T04:21:57;3.70;99.90
5011;DHT22;2524;54.364;10.072;2023-02-25T04:24:25;3.70;99.90
5011;DHT22;2524;54.364;10.072;2023-02-25T04:26:50;3.70;99.90
5011;DHT22;2524;54.364;10.072;2023-02-25T04:29:25;3.70;99.90
5011;DHT22;2524;54.364;10.072;2023-02-25T04:31:51;3.70;99.90
5011;DHT22;2524;54.364;10.072;2023-02-25T04:34:17;3.70;99.90
5011;DHT22;2524;54.364;10.072;2023-02-25T04:36:44;3.70;99.90
5011;DHT22;2524;54.364;10.072;2023-02-25T04:39:11;3.70;99.90
5011;DHT22;2524;54.364;10.072;2023-02-25T04:41:38;3.70;99.90
5011;DHT22;2524;54.364;10.072;2023-02-25T04:44:05;3.70;99.90
5011;DHT22;2524;54.364;10.072;2023-02-25T04:46:32;3.70;99.90
5011;DHT22;2524;54.364;10.072;2023-02-25T04:48:58;3.70;99.90
5011;DHT22;2524;54.364;10.072;2023-02-25T04:51:24;3.70;99.90
5011;DHT22;2524;54.364;10.072;2023-02-25T04:53:50;3.70;99.90
5011;DHT22;2524;54.364;10.072;2023-02-25T04:56:16;3.70;99.90
5011;DHT22;2524;54.364;10.072;2023-02-25T04:58:41;3.70;99.90
5011;DHT22;2524;54.364;10.072;2023-02-25T05:01:08;3.70;99.90
5011;DHT22;2524;54.364;10.072;2023-02-25T05:03:35;3.70;99.90
5011;DHT22;2524;54.364;10.072;2023-02-25T05:06:01;3.60;99.90
5011;DHT22;2524;54.364;10.072;2023-02-25T05:08:27;3.60;99.90
5011;DHT22;2524;54.364;10.072;2023-02-25T05:10:52;3.60;99.90
5011;DHT22;2524;54.364;10.072;2023-02-25T05:13:18;3.60;99.90
5011;DHT22;2524;54.364;10.072;2023-02-25T05:15:45;3.60;99.90
5011;DHT22;2524;54.364;10.072;2023-02-25T05:18:10;3.50;99.90
5011;DHT22;2524;54.364;10.072;2023-02-25T05:20:44;3.50;99.90
5011;DHT22;2524;54.364;10.072;2023-02-25T05:23:10;3.50;99.90
5011;DHT22;2524;54.364;10.072;2023-02-25T05:25:37;3.40;99.90
5011;DHT22;2524;54.364;10.072;2023-02-25T05:28:06;3.30;99.90
5011;DHT22;2524;54.364;10.072;2023-02-25T05:30:32;3.30;99.90
5011;DHT22;2524;54.364;10.072;2023-02-25T05:32:57;3.20;99.90
5011;DHT22;2524;54.364;10.072;2023-02-25T05:35:23;3.20;99.90
5011;DHT22;2524;54.364;10.072;2023-02-25T05:37:48;3.10;99.90
5011;DHT22;2524;54.364;10.072;2023-02-25T05:40:14;3.00;99.90
5011;DHT22;2524;54.364;10.072;2023-02-25T05:42:40;3.00;99.90
5011;DHT22;2524;54.364;10.072;2023-02-25T05:45:06;2.90;99.90
5011;DHT22;2524;54.364;10.072;2023-02-25T05:47:33;2.90;99.90
5011;DHT22;2524;54.364;10.072;2023-02-25T05:49:58;2.90;99.90
5011;DHT22;2524;54.364;10.072;2023-02-25T05:52:24;2.90;99.90
5011;DHT22;2524;54.364;10.072;2023-02-25T05:54:50;2.90;99.90
5011;DHT22;2524;54.364;10.072;2023-02-25T05:57:15;2.90;99.90
5011;DHT22;2524;54.364;10.072;2023-02-25T05:59:41;2.90;99.90
5011;DHT22;2524;54.364;10.072;2023-02-25T06:02:06;2.80;99.90
5011;DHT22;2524;54.364;10.072;2023-02-25T06:04:32;2.80;99.90
5011;DHT22;2524;54.364;10.072;2023-02-25T06:06:57;2.80;99.90
5011;DHT22;2524;54.364;10.072;2023-02-25T06:09:23;2.80;99.90
5011;DHT22;2524;54.364;10.072;2023-02-25T06:11:49;2.80;99.90
5011;DHT22;2524;54.364;10.072;2023-02-25T06:14:15;2.80;99.90
5011;DHT22;2524;54.364;10.072;2023-02-25T06:16:41;2.80;99.90
5011;DHT22;2524;54.364;10.072;2023-02-25T06:19:07;2.90;99.90
5011;DHT22;2524;54.364;10.072;2023-02-25T06:21:34;2.90;99.90
5011;DHT22;2524;54.364;10.072;2023-02-25T06:24:00;2.90;99.90
5011;DHT22;2524;54.364;10.072;2023-02-25T06:26:26;3.00;99.90
5011;DHT22;2524;54.364;10.072;2023-02-25T06:28:52;3.00;99.90
5011;DHT22;2524;54.364;10.072;2023-02-25T06:31:19;3.00;99.90
5011;DHT22;2524;54.364;10.072;2023-02-25T06:33:47;3.10;99.90
5011;DHT22;2524;54.364;10.072;2023-02-25T06:36:13;3.10;99.90
5011;DHT22;2524;54.364;10.072;2023-02-25T06:38:39;3.00;99.90
5011;DHT22;2524;54.364;10.072;2023-02-25T06:41:11;3.00;99.90
5011;DHT22;2524;54.364;10.072;2023-02-25T06:43:38;3.00;99.90
5011;DHT22;2524;54.364;10.072;2023-02-25T06:46:05;3.00;99.90
5011;DHT22;2524;54.364;10.072;2023-02-25T06:48:31;2.90;99.90
5011;DHT22;2524;54.364;10.072;2023-02-25T06:50:57;2.90;99.90
5011;DHT22;2524;54.364;10.072;2023-02-25T06:53:22;2.90;99.90
5011;DHT22;2524;54.364;10.072;2023-02-25T06:55:48;2.90;99.90
5011;DHT22;2524;54.364;10.072;2023-02-25T06:58:14;2.90;99.90
5011;DHT22;2524;54.364;10.072;2023-02-25T07:00:41;2.90;99.90
5011;DHT22;2524;54.364;10.072;2023-02-25T07:03:12;2.90;99.90
5011;DHT22;2524;54.364;10.072;2023-02-25T07:05:38;2.90;99.90
5011;DHT22;2524;54.364;10.072;2023-02-25T07:08:04;2.90;99.90
5011;DHT22;2524;54.364;10.072;2023-02-25T07:10:30;3.00;99.90
5011;DHT22;2524;54.364;10.072;2023-02-25T07:12:55;3.00;99.90
5011;DHT22;2524;54.364;10.072;2023-02-25T07:15:21;2.90;99.90
5011;DHT22;2524;54.364;10.072;2023-02-25T07:17:47;2.90;99.90
5011;DHT22;2524;54.364;10.072;2023-02-25T07:20:12;2.90;99.90
5011;DHT22;2524;54.364;10.072;2023-02-25T07:22:38;2.90;99.90
5011;DHT22;2524;54.364;10.072;2023-02-25T07:25:07;2.90;99.90
5011;DHT22;2524;54.364;10.072;2023-02-25T07:27:33;2.90;99.90
5011;DHT22;2524;54.364;10.072;2023-02-25T07:29:58;2.90;99.90
5011;DHT22;2524;54.364;10.072;2023-02-25T07:32:25;3.00;99.90
5011;DHT22;2524;54.364;10.072;2023-02-25T07:34:51;3.00;99.90
5011;DHT22;2524;54.364;10.072;2023-02-25T07:37:17;3.00;99.90
5011;DHT22;2524;54.364;10.072;2023-02-25T07:39:42;3.00;99.90
5011;DHT22;2524;54.364;10.072;2023-02-25T07:42:08;3.00;99.90
5011;DHT22;2524;54.364;10.072;2023-02-25T07:44:33;3.00;99.90
5011;DHT22;2524;54.364;10.072;2023-02-25T07:47:00;3.00;99.90
5011;DHT22;2524;54.364;10.072;2023-02-25T07:49:26;3.00;99.90
5011;DHT22;2524;54.364;10.072;2023-02-25T07:51:52;3.00;99.90
5011;DHT22;2524;54.364;10.072;2023-02-25T07:54:17;2.90;99.90
5011;DHT22;2524;54.364;10.072;2023-02-25T07:56:46;2.90;99.90
5011;DHT22;2524;54.364;10.072;2023-02-25T07:59:11;3.00;99.90
5011;DHT22;2524;54.364;10.072;2023-02-25T08:01:37;2.90;99.90
5011;DHT22;2524;54.364;10.072;2023-02-25T08:04:05;2.90;99.90
5011;DHT22;2524;54.364;10.072;2023-02-25T08:06:34;3.00;99.90
5011;DHT22;2524;54.364;10.072;2023-02-25T08:09:02;3.00;99.90
5011;DHT22;2524;54.364;10.072;2023-02-25T08:11:30;3.10;99.90
5011;DHT22;2524;54.364;10.072;2023-02-25T08:13:58;3.10;99.90
5011;DHT22;2524;54.364;10.072;2023-02-25T08:16:24;3.10;99.90
5011;DHT22;2524;54.364;10.072;2023-02-25T08:18:49;3.10;99.90
5011;DHT22;2524;54.364;10.072;2023-02-25T08:21:18;3.10;99.90
5011;DHT22;2524;54.364;10.072;2023-02-25T08:23:46;3.10;99.90
5011;DHT22;2524;54.364;10.072;2023-02-25T08:26:13;3.10;99.90
5011;DHT22;2524;54.364;10.072;2023-02-25T08:28:41;3.20;99.90
5011;DHT22;2524;54.364;10.072;2023-02-25T08:31:08;3.20;99.90
5011;DHT22;2524;54.364;10.072;2023-02-25T08:33:36;3.20;99.90
5011;DHT22;2524;54.364;10.072;2023-02-25T08:36:07;3.20;99.90
5011;DHT22;2524;54.364;10.072;2023-02-25T08:38:34;3.10;99.90
5011;DHT22;2524;54.364;10.072;2023-02-25T08:41:00;3.10;99.90
5011;DHT22;2524;54.364;10.072;2023-02-25T08:43:26;3.10;99.90
5011;DHT22;2524;54.364;10.072;2023-02-25T08:45:52;3.10;99.90
5011;DHT22;2524;54.364;10.072;2023-02-25T08:48:17;3.10;99.90
5011;DHT22;2524;54.364;10.072;2023-02-25T08:50:43;3.10;99.90
5011;DHT22;2524;54.364;10.072;2023-02-25T08:53:08;3.10;99.90
5011;DHT22;2524;54.364;10.072;2023-02-25T08:55:35;3.10;99.90
5011;DHT22;2524;54.364;10.072;2023-02-25T08:58:00;3.10;99.90
5011;DHT22;2524;54.364;10.072;2023-02-25T09:00:26;3.10;99.90
5011;DHT22;2524;54.364;10.072;2023-02-25T09:02:53;3.10;99.90
5011;DHT22;2524;54.364;10.072;2023-02-25T09:05:18;3.10;99.90
5011;DHT22;2524;54.364;10.072;2023-02-25T09:07:44;3.10;99.90
5011;DHT22;2524;54.364;10.072;2023-02-25T09:10:10;3.10;99.90
5011;DHT22;2524;54.364;10.072;2023-02-25T09:12:38;3.10;99.90
5011;DHT22;2524;54.364;10.072;2023-02-25T09:15:05;3.20;99.90
5011;DHT22;2524;54.364;10.072;2023-02-25T09:17:32;3.20;99.90
5011;DHT22;2524;54.364;10.072;2023-02-25T09:19:57;3.10;99.90
5011;DHT22;2524;54.364;10.072;2023-02-25T09:22:26;3.20;99.90
5011;DHT22;2524;54.364;10.072;2023-02-25T09:24:51;3.20;99.90
5011;DHT22;2524;54.364;10.072;2023-02-25T09:27:17;3.40;99.90
5011;DHT22;2524;54.364;10.072;2023-02-25T09:29:42;3.20;99.90
5011;DHT22;2524;54.364;10.072;2023-02-25T09:32:16;3.30;99.90
5011;DHT22;2524;54.364;10.072;2023-02-25T09:34:42;3.30;99.90
5011;DHT22;2524;54.364;10.072;2023-02-25T09:37:07;3.30;99.90
5011;DHT22;2524;54.364;10.072;2023-02-25T09:39:34;3.30;99.90
5011;DHT22;2524;54.364;10.072;2023-02-25T09:42:10;3.40;99.90
5011;DHT22;2524;54.364;10.072;2023-02-25T09:44:44;3.40;99.90
5011;DHT22;2524;54.364;10.072;2023-02-25T09:47:27;3.40;99.90
5011;DHT22;2524;54.364;10.072;2023-02-25T09:50:13;3.50;99.90
5011;DHT22;2524;54.364;10.072;2023-02-25T09:53:12;3.50;99.90
5011;DHT22;2524;54.364;10.072;2023-02-25T09:55:39;3.40;99.90
5011;DHT22;2524;54.364;10.072;2023-02-25T09:58:40;3.50;99.90
5011;DHT22;2524;54.364;10.072;2023-02-25T10:06:31;3.60;99.90
5011;DHT22;2524;54.364;10.072;2023-02-25T10:14:42;3.70;99.90
5011;DHT22;2524;54.364;10.072;2023-02-25T10:17:36;3.80;99.90
5011;DHT22;2524;54.364;10.072;2023-02-25T10:25:36;3.80;99.90
5011;DHT22;2524;54.364;10.072;2023-02-25T10:28:13;3.80;99.90
5011;DHT22;2524;54.364;10.072;2023-02-25T10:31:03;3.80;99.90
5011;DHT22;2524;54.364;10.072;2023-02-25T10:33:34;3.80;99.90
5011;DHT22;2524;54.364;10.072;2023-02-25T10:36:17;3.80;99.90
5011;DHT22;2524;54.364;10.072;2023-02-25T10:38:46;3.90;99.90
5011;DHT22;2524;54.364;10.072;2023-02-25T10:41:13;4.00;99.90
5011;DHT22;2524;54.364;10.072;2023-02-25T10:43:38;4.00;99.90
5011;DHT22;2524;54.364;10.072;2023-02-25T10:46:14;4.00;99.90
5011;DHT22;2524;54.364;10.072;2023-02-25T10:49:00;4.00;99.90
5011;DHT22;2524;54.364;10.072;2023-02-25T10:51:27;4.10;99.90
5011;DHT22;2524;54.364;10.072;2023-02-25T10:54:04;4.10;99.90
5011;DHT22;2524;54.364;10.072;2023-02-25T10:56:40;4.10;99.90
5011;DHT22;2524;54.364;10.072;2023-02-25T10:59:34;4.20;99.90
5011;DHT22;2524;54.364;10.072;2023-02-25T11:02:04;4.10;99.90
5011;DHT22;2524;54.364;10.072;2023-02-25T11:04:44;4.10;99.90
5011;DHT22;2524;54.364;10.072;2023-02-25T11:07:29;4.10;99.90
5011;DHT22;2524;54.364;10.072;2023-02-25T11:10:19;4.20;99.90
5011;DHT22;2524;54.364;10.072;2023-02-25T11:12:48;4.20;99.90
5011;DHT22;2524;54.364;10.072;2023-02-25T11:15:36;4.20;99.90
5011;DHT22;2524;54.364;10.072;2023-02-25T11:18:22;4.30;99.90
5011;DHT22;2524;54.364;10.072;2023-02-25T11:23:44;4.30;99.90
5011;DHT22;2524;54.364;10.072;2023-02-25T11:26:15;4.30;99.90
5011;DHT22;2524;54.364;10.072;2023-02-25T11:28:48;4.40;99.90
5011;DHT22;2524;54.364;10.072;2023-02-25T11:31:29;4.50;99.90
5011;DHT22;2524;54.364;10.072;2023-02-25T11:34:04;4.50;99.90
5011;DHT22;2524;54.364;10.072;2023-02-25T11:36:33;4.60;99.90
5011;DHT22;2524;54.364;10.072;2023-02-25T11:41:34;4.60;99.70
5011;DHT22;2524;54.364;10.072;2023-02-25T11:44:18;4.50;99.70
5011;DHT22;2524;54.364;10.072;2023-02-25T11:46:48;4.50;99.10
5011;DHT22;2524;54.364;10.072;2023-02-25T11:49:29;4.50;99.10
5011;DHT22;2524;54.364;10.072;2023-02-25T11:58:57;4.60;99.20
5011;DHT22;2524;54.364;10.072;2023-02-25T12:18:02;4.90;97.80
5011;DHT22;2524;54.364;10.072;2023-02-25T12:29:44;5.00;96.20
5011;DHT22;2524;54.364;10.072;2023-02-25T12:35:39;5.00;96.70
5011;DHT22;2524;54.364;10.072;2023-02-25T12:52:15;5.30;94.60
5011;DHT22;2524;54.364;10.072;2023-02-25T12:55:18;5.40;94.00
5011;DHT22;2524;54.364;10.072;2023-02-25T13:00:41;5.30;93.90
5011;DHT22;2524;54.364;10.072;2023-02-25T13:08:47;5.40;93.90
5011;DHT22;2524;54.364;10.072;2023-02-25T13:11:40;5.50;94.10
5011;DHT22;2524;54.364;10.072;2023-02-25T13:17:01;5.70;92.30
5011;DHT22;2524;54.364;10.072;2023-02-25T13:25:56;5.70;92.30
5011;DHT22;2524;54.364;10.072;2023-02-25T13:28:42;5.70;92.50
5011;DHT22;2524;54.364;10.072;2023-02-25T13:42:21;5.90;91.70
5011;DHT22;2524;54.364;10.072;2023-02-25T13:56:19;5.60;90.10
5011;DHT22;2524;54.364;10.072;2023-02-25T14:13:27;5.00;89.30
5011;DHT22;2524;54.364;10.072;2023-02-25T14:16:14;4.90;88.60
5011;DHT22;2524;54.364;10.072;2023-02-25T14:25:03;4.80;87.40
5011;DHT22;2524;54.364;10.072;2023-02-25T14:27:36;4.80;87.30
5011;DHT22;2524;54.364;10.072;2023-02-25T14:38:59;4.90;86.90
5011;DHT22;2524;54.364;10.072;2023-02-25T14:44:43;5.10;87.00
5011;DHT22;2524;54.364;10.072;2023-02-25T14:47:16;5.20;87.10
5011;DHT22;2524;54.364;10.072;2023-02-25T14:52:44;5.30;86.60
5011;DHT22;2524;54.364;10.072;2023-02-25T14:58:24;5.60;84.30
5011;DHT22;2524;54.364;10.072;2023-02-25T15:04:23;5.60;82.90
5011;DHT22;2524;54.364;10.072;2023-02-25T15:07:11;5.60;82.00
5011;DHT22;2524;54.364;10.072;2023-02-25T15:22:53;5.90;84.40
5011;DHT22;2524;54.364;10.072;2023-02-25T15:27:50;5.90;83.10
5011;DHT22;2524;54.364;10.072;2023-02-25T15:30:24;6.00;82.80
5011;DHT22;2524;54.364;10.072;2023-02-25T15:33:11;5.90;82.00
5011;DHT22;2524;54.364;10.072;2023-02-25T15:38:19;5.70;80.50
5011;DHT22;2524;54.364;10.072;2023-02-25T15:40:49;5.50;80.30
5011;DHT22;2524;54.364;10.072;2023-02-25T15:45:44;5.30;80.80
5011;DHT22;2524;54.364;10.072;2023-02-25T15:53:12;5.80;84.00
5011;DHT22;2524;54.364;10.072;2023-02-25T16:01:25;6.20;82.40
5011;DHT22;2524;54.364;10.072;2023-02-25T16:03:51;6.30;79.40
5011;DHT22;2524;54.364;10.072;2023-02-25T16:06:33;6.20;78.40
5011;DHT22;2524;54.364;10.072;2023-02-25T16:09:07;6.00;76.70
5011;DHT22;2524;54.364;10.072;2023-02-25T16:11:47;5.90;75.40
5011;DHT22;2524;54.364;10.072;2023-02-25T16:16:58;5.50;75.00
5011;DHT22;2524;54.364;10.072;2023-02-25T16:19:30;5.20;75.60
5011;DHT22;2524;54.364;10.072;2023-02-25T16:22:09;5.00;75.30
5011;DHT22;2524;54.364;10.072;2023-02-25T16:24:42;4.80;75.20
5011;DHT22;2524;54.364;10.072;2023-02-25T16:35:30;4.20;75.80
5011;DHT22;2524;54.364;10.072;2023-02-25T16:38:25;4.20;76.10
5011;DHT22;2524;54.364;10.072;2023-02-25T16:40:52;4.10;76.30
5011;DHT22;2524;54.364;10.072;2023-02-25T16:43:22;4.00;76.20
5011;DHT22;2524;54.364;10.072;2023-02-25T16:45:58;3.90;77.00
5011;DHT22;2524;54.364;10.072;2023-02-25T16:48:33;3.90;77.10
5011;DHT22;2524;54.364;10.072;2023-02-25T16:53:42;3.90;76.70
5011;DHT22;2524;54.364;10.072;2023-02-25T16:56:17;3.80;76.80
5011;DHT22;2524;54.364;10.072;2023-02-25T16:59:13;3.80;76.90
5011;DHT22;2524;54.364;10.072;2023-02-25T17:02:18;3.70;77.30
5011;DHT22;2524;54.364;10.072;2023-02-25T17:04:53;3.70;76.50
5011;DHT22;2524;54.364;10.072;2023-02-25T17:07:23;3.70;76.50
5011;DHT22;2524;54.364;10.072;2023-02-25T17:10:00;3.70;76.40
5011;DHT22;2524;54.364;10.072;2023-02-25T17:12:36;3.80;76.40
5011;DHT22;2524;54.364;10.072;2023-02-25T17:15:11;3.70;76.00
5011;DHT22;2524;54.364;10.072;2023-02-25T17:17:39;3.70;76.10
5011;DHT22;2524;54.364;10.072;2023-02-25T17:20:14;3.70;76.20
5011;DHT22;2524;54.364;10.072;2023-02-25T17:22:43;3.70;77.00
5011;DHT22;2524;54.364;10.072;2023-02-25T17:25:11;3.70;77.60
5011;DHT22;2524;54.364;10.072;2023-02-25T17:27:40;3.70;76.80
5011;DHT22;2524;54.364;10.072;2023-02-25T17:30:37;3.70;76.90
5011;DHT22;2524;54.364;10.072;2023-02-25T17:33:04;3.70;77.00
5011;DHT22;2524;54.364;10.072;2023-02-25T17:35:30;3.70;77.20
5011;DHT22;2524;54.364;10.072;2023-02-25T17:37:56;3.70;78.40
5011;DHT22;2524;54.364;10.072;2023-02-25T17:40:27;3.70;78.50
5011;DHT22;2524;54.364;10.072;2023-02-25T17:43:35;3.60;79.10
5011;DHT22;2524;54.364;10.072;2023-02-25T17:46:23;3.60;79.40
5011;DHT22;2524;54.364;10.072;2023-02-25T17:48:59;3.60;79.20
5011;DHT22;2524;54.364;10.072;2023-02-25T17:51:35;3.50;79.70
5011;DHT22;2524;54.364;10.072;2023-02-25T17:54:07;3.50;80.30
5011;DHT22;2524;54.364;10.072;2023-02-25T17:56:33;3.50;80.70
5011;DHT22;2524;54.364;10.072;2023-02-25T17:59:04;3.50;80.60
5011;DHT22;2524;54.364;10.072;2023-02-25T18:01:49;3.50;80.60
5011;DHT22;2524;54.364;10.072;2023-02-25T18:04:43;3.50;81.10
5011;DHT22;2524;54.364;10.072;2023-02-25T18:07:27;3.50;80.90
5011;DHT22;2524;54.364;10.072;2023-02-25T18:09:56;3.50;81.60
5011;DHT22;2524;54.364;10.072;2023-02-25T18:12:36;3.50;82.90
5011;DHT22;2524;54.364;10.072;2023-02-25T18:15:16;3.50;83.00
5011;DHT22;2524;54.364;10.072;2023-02-25T18:17:47;3.50;82.40
5011;DHT22;2524;54.364;10.072;2023-02-25T18:20:35;3.50;82.90
5011;DHT22;2524;54.364;10.072;2023-02-25T18:23:03;3.40;82.60
5011;DHT22;2524;54.364;10.072;2023-02-25T18:25:36;3.50;82.70
5011;DHT22;2524;54.364;10.072;2023-02-25T18:28:04;3.50;82.50
5011;DHT22;2524;54.364;10.072;2023-02-25T18:30:31;3.50;82.60
5011;DHT22;2524;54.364;10.072;2023-02-25T18:32:58;3.50;83.10
5011;DHT22;2524;54.364;10.072;2023-02-25T18:35:25;3.50;82.80
5011;DHT22;2524;54.364;10.072;2023-02-25T18:37:52;3.50;82.90
5011;DHT22;2524;54.364;10.072;2023-02-25T18:40:26;3.50;83.10
5011;DHT22;2524;54.364;10.072;2023-02-25T18:42:52;3.50;84.20
5011;DHT22;2524;54.364;10.072;2023-02-25T18:45:21;3.50;84.30
5011;DHT22;2524;54.364;10.072;2023-02-25T18:47:47;3.50;83.90
5011;DHT22;2524;54.364;10.072;2023-02-25T18:50:13;3.50;84.70
5011;DHT22;2524;54.364;10.072;2023-02-25T18:52:39;3.50;86.20
5011;DHT22;2524;54.364;10.072;2023-02-25T18:55:08;3.40;86.10
5011;DHT22;2524;54.364;10.072;2023-02-25T18:57:34;3.40;86.00
5011;DHT22;2524;54.364;10.072;2023-02-25T19:00:00;3.40;87.80
5011;DHT22;2524;54.364;10.072;2023-02-25T19:02:49;3.30;89.20
5011;DHT22;2524;54.364;10.072;2023-02-25T19:05:16;3.30;88.60
5011;DHT22;2524;54.364;10.072;2023-02-25T19:07:43;3.30;89.30
5011;DHT22;2524;54.364;10.072;2023-02-25T19:10:24;3.20;90.10
5011;DHT22;2524;54.364;10.072;2023-02-25T19:12:51;3.20;89.90
5011;DHT22;2524;54.364;10.072;2023-02-25T19:15:20;3.20;90.50
5011;DHT22;2524;54.364;10.072;2023-02-25T19:17:46;3.20;90.10
5011;DHT22;2524;54.364;10.072;2023-02-25T19:20:13;3.20;90.30
5011;DHT22;2524;54.364;10.072;2023-02-25T19:22:44;3.10;90.90
5011;DHT22;2524;54.364;10.072;2023-02-25T19:25:20;3.10;90.50
5011;DHT22;2524;54.364;10.072;2023-02-25T19:27:46;3.10;90.50
5011;DHT22;2524;54.364;10.072;2023-02-25T19:30:14;3.10;90.70
5011;DHT22;2524;54.364;10.072;2023-02-25T19:32:41;3.10;91.50
5011;DHT22;2524;54.364;10.072;2023-02-25T19:35:07;3.00;91.70
5011;DHT22;2524;54.364;10.072;2023-02-25T19:37:37;3.10;92.90
5011;DHT22;2524;54.364;10.072;2023-02-25T19:40:06;3.00;93.10
5011;DHT22;2524;54.364;10.072;2023-02-25T19:42:39;2.90;92.90
5011;DHT22;2524;54.364;10.072;2023-02-25T19:45:06;2.80;92.50
5011;DHT22;2524;54.364;10.072;2023-02-25T19:47:33;2.70;92.80
5011;DHT22;2524;54.364;10.072;2023-02-25T19:49:59;2.60;92.90
5011;DHT22;2524;54.364;10.072;2023-02-25T19:52:27;2.60;92.70
5011;DHT22;2524;54.364;10.072;2023-02-25T19:54:53;2.60;93.30
5011;DHT22;2524;54.364;10.072;2023-02-25T19:57:19;2.50;92.90